Time;durP1;ratioP1;P1;durP2;ratioP2;P2;SDS_P1;SDS_P2;PMS_P1;PMS_P2;Temp;Humidity;BMP_temperature;BMP_pressure;BME280_temperature;BME280_humidity;BME280_pressure;Samples;Min_cycle;Max_cycle;Signal;HPM_P1;HPM_P2
2022/03/16 00:01:04;;;;;;;17.57;11.53;;;9.90;98.50;;;;;;5054798;28;20435;-43
2022/03/16 00:03:31;;;;;;;19.80;12.57;;;9.90;98.60;;;;;;5054574;28;20457;-45
2022/03/16 00:05:57;;;;;;;17.53;11.20;;;10.00;98.40;;;;;;5054565;28;20438;-44
2022/03/16 00:08:27;;;;;;;18.70;12.10;;;10.10;98.40;;;;;;5054570;28;20802;-44
2022/03/16 00:10:56;;;;;;;22.47;13.57;;;9.80;98.90;;;;;;5054689;28;20422;-43
2022/03/16 00:13:23;;;;;;;18.70;13.30;;;10.00;98.80;;;;;;5054612;28;20582;-42
2022/03/16 00:15:49;;;;;;;21.40;13.07;;;10.30;98.90;;;;;;5054626;28;20431;-43
2022/03/16 00:18:16;;;;;;;17.20;11.20;;;10.00;99.10;;;;;;5054595;28;20965;-43
2022/03/16 00:20:42;;;;;;;19.00;13.23;;;9.90;99.60;;;;;;5054413;28;20869;-43
2022/03/16 00:23:09;;;;;;;20.67;13.53;;;10.10;99.60;;;;;;5054429;28;20458;-43
2022/03/16 00:25:35;;;;;;;17.37;12.80;;;9.90;99.90;;;;;;5053255;28;20439;-43
2022/03/16 00:28:04;;;;;;;25.97;15.13;;;10.20;99.90;;;;;;5054414;28;20441;-42
2022/03/16 00:30:30;;;;;;;23.30;14.20;;;9.90;99.90;;;;;;5035864;28;20827;-42
2022/03/16 00:32:57;;;;;;;19.23;14.60;;;9.90;99.90;;;;;;5054069;28;20466;-42
2022/03/16 00:35:24;;;;;;;24.90;16.00;;;9.80;99.90;;;;;;5036351;28;20452;-42
2022/03/16 00:37:51;;;;;;;27.93;16.63;;;9.80;99.90;;;;;;5054153;28;20445;-42
2022/03/16 00:40:17;;;;;;;23.47;14.33;;;9.50;99.90;;;;;;5053832;28;20765;-44
2022/03/16 00:42:44;;;;;;;28.83;15.47;;;9.50;99.90;;;;;;5054098;28;20458;-45
2022/03/16 00:45:12;;;;;;;24.83;15.53;;;9.60;99.90;;;;;;5053943;28;20430;-44
2022/03/16 00:47:38;;;;;;;20.97;14.57;;;9.30;99.90;;;;;;5036145;28;20458;-44
2022/03/16 00:50:06;;;;;;;25.13;16.43;;;9.50;99.90;;;;;;5053604;28;20410;-42
2022/03/16 00:52:33;;;;;;;26.73;16.27;;;9.60;99.90;;;;;;5053708;28;20457;-42
2022/03/16 00:54:59;;;;;;;24.20;16.40;;;9.50;99.90;;;;;;5035949;28;20839;-41
2022/03/16 00:57:26;;;;;;;23.97;15.13;;;9.60;99.90;;;;;;5035882;28;20447;-43
2022/03/16 00:59:53;;;;;;;24.90;15.20;;;9.60;99.90;;;;;;5053390;28;20484;-42
2022/03/16 01:02:21;;;;;;;23.60;17.80;;;9.40;99.90;;;;;;5035624;28;20454;-41
2022/03/16 01:04:47;;;;;;;23.43;14.53;;;9.00;99.90;;;;;;5035783;28;20435;-44
2022/03/16 01:07:14;;;;;;;22.17;16.00;;;8.80;99.90;;;;;;5053691;28;20409;-43
2022/03/16 01:09:40;;;;;;;24.93;17.00;;;9.60;99.90;;;;;;5053257;28;20445;-43
2022/03/16 01:12:08;;;;;;;30.97;16.70;;;9.20;99.90;;;;;;5053364;28;20470;-42
2022/03/16 01:14:35;;;;;;;26.77;17.93;;;9.20;99.90;;;;;;5053484;28;20485;-43
2022/03/16 01:17:02;;;;;;;32.43;17.60;;;9.10;99.90;;;;;;5053430;28;20640;-44
2022/03/16 01:19:34;;;;;;;24.30;17.13;;;9.50;99.90;;;;;;5035174;28;20786;-43
2022/03/16 01:22:01;;;;;;;25.90;17.30;;;8.50;99.90;;;;;;5035479;28;20557;-42
2022/03/16 01:24:28;;;;;;;22.73;16.90;;;9.00;99.90;;;;;;5035356;28;20492;-44
2022/03/16 01:26:55;;;;;;;21.30;15.60;;;9.50;99.90;;;;;;5053445;28;20447;-42
2022/03/16 01:29:24;;;;;;;24.30;16.20;;;8.30;99.90;;;;;;5035026;28;20442;-41
2022/03/16 01:31:51;;;;;;;25.97;18.13;;;8.70;99.90;;;;;;5053059;28;20450;-44
2022/03/16 01:34:17;;;;;;;26.63;16.57;;;9.00;99.90;;;;;;5053034;28;20481;-43
2022/03/16 01:36:48;;;;;;;23.67;15.70;;;8.80;99.90;;;;;;5034976;28;21033;-42
2022/03/16 01:39:18;;;;;;;21.40;16.47;;;8.90;99.90;;;;;;5052748;28;20972;-43
2022/03/16 01:41:48;;;;;;;27.60;16.50;;;8.90;99.90;;;;;;5034892;28;20866;-43
2022/03/16 01:44:14;;;;;;;23.33;16.43;;;8.30;99.90;;;;;;5034922;28;20446;-42
2022/03/16 01:46:41;;;;;;;27.87;17.27;;;8.80;99.90;;;;;;5052787;28;20438;-42
2022/03/16 01:49:08;;;;;;;25.47;15.53;;;8.70;99.90;;;;;;5052363;28;20438;-43
2022/03/16 01:51:35;;;;;;;23.10;16.00;;;8.70;99.90;;;;;;5052619;28;20427;-41
2022/03/16 01:54:04;;;;;;;26.93;15.63;;;8.30;99.90;;;;;;5052712;28;20478;-43
2022/03/16 01:56:31;;;;;;;25.50;15.83;;;8.40;99.90;;;;;;5052760;28;20423;-42
2022/03/16 01:58:58;;;;;;;24.33;15.83;;;8.60;99.90;;;;;;5034262;28;20454;-41
2022/03/16 02:01:25;;;;;;;25.30;17.00;;;8.10;99.90;;;;;;5034472;28;20450;-44
2022/03/16 02:03:53;;;;;;;23.97;16.53;;;8.70;99.90;;;;;;5034701;28;20670;-42
2022/03/16 02:06:19;;;;;;;25.57;15.60;;;8.50;99.90;;;;;;5052484;28;20454;-45
2022/03/16 02:08:46;;;;;;;20.90;16.00;;;8.70;99.90;;;;;;5052057;28;20822;-42
2022/03/16 02:11:15;;;;;;;26.00;17.87;;;8.30;99.90;;;;;;5052439;28;20800;-43
2022/03/16 02:13:41;;;;;;;24.67;16.37;;;8.70;99.90;;;;;;5051903;28;20886;-43
2022/03/16 02:16:09;;;;;;;26.47;17.70;;;8.30;99.90;;;;;;5052326;28;20438;-44
2022/03/16 02:18:37;;;;;;;27.97;18.20;;;8.60;99.90;;;;;;5052098;28;20454;-42
2022/03/16 02:21:07;;;;;;;25.20;16.23;;;8.60;99.90;;;;;;5052355;28;20437;-42
2022/03/16 02:23:35;;;;;;;29.03;16.83;;;8.10;99.90;;;;;;5052214;28;20858;-43
2022/03/16 02:26:02;;;;;;;26.67;17.07;;;8.10;99.90;;;;;;5052245;28;20435;-42
2022/03/16 02:28:28;;;;;;;24.70;16.70;;;7.80;99.90;;;;;;5052073;28;20787;-43
2022/03/16 02:30:55;;;;;;;32.03;16.57;;;8.30;99.90;;;;;;5052311;28;20445;-43
2022/03/16 02:33:22;;;;;;;26.17;17.40;;;7.70;99.90;;;;;;5052007;28;20453;-42
2022/03/16 02:35:49;;;;;;;30.10;17.70;;;7.70;99.90;;;;;;5052076;28;20430;-43
2022/03/16 02:38:15;;;;;;;24.87;16.50;;;8.20;99.90;;;;;;5052011;28;20437;-42
2022/03/16 02:40:44;;;;;;;24.87;16.10;;;8.50;99.90;;;;;;5051691;28;20434;-43
2022/03/16 02:43:10;;;;;;;31.73;16.43;;;8.10;99.90;;;;;;5051955;28;20465;-43
2022/03/16 02:45:37;;;;;;;30.20;15.87;;;8.20;99.90;;;;;;5051972;28;20952;-43
2022/03/16 02:48:05;;;;;;;25.80;15.03;;;8.20;99.90;;;;;;5051324;28;20442;-42
2022/03/16 02:50:32;;;;;;;25.00;18.23;;;8.00;99.90;;;;;;5051470;28;20500;-43
2022/03/16 02:52:59;;;;;;;28.33;16.63;;;8.40;99.90;;;;;;5051763;28;20460;-42
2022/03/16 02:55:25;;;;;;;26.10;16.00;;;7.90;99.90;;;;;;5051622;28;20976;-43
2022/03/16 02:57:53;;;;;;;23.83;16.00;;;8.00;99.90;;;;;;5051678;28;20435;-43
2022/03/16 03:00:20;;;;;;;22.57;15.17;;;7.90;99.90;;;;;;5051278;28;20448;-42
2022/03/16 03:02:47;;;;;;;25.40;15.63;;;7.90;99.90;;;;;;5051641;28;20525;-44
2022/03/16 03:05:14;;;;;;;23.40;15.37;;;8.00;99.90;;;;;;5051727;28;20465;-42
2022/03/16 03:07:40;;;;;;;23.20;15.63;;;8.10;99.90;;;;;;5051735;28;20412;-43
2022/03/16 03:10:08;;;;;;;23.50;15.40;;;8.00;99.90;;;;;;5051163;28;20444;-43
2022/03/16 03:12:35;;;;;;;23.37;15.30;;;8.20;99.90;;;;;;5051293;28;20484;-43
2022/03/16 03:15:04;;;;;;;27.13;16.27;;;8.40;99.90;;;;;;5051433;28;20478;-43
2022/03/16 03:17:31;;;;;;;22.47;14.60;;;7.80;99.90;;;;;;5051549;28;20574;-42
2022/03/16 03:19:58;;;;;;;28.53;15.83;;;7.60;99.90;;;;;;5051093;28;20439;-45
2022/03/16 03:22:27;;;;;;;23.70;15.63;;;7.50;99.90;;;;;;5051380;28;20457;-42
2022/03/16 03:24:54;;;;;;;24.20;16.53;;;7.70;99.90;;;;;;5051504;28;20468;-43
2022/03/16 03:27:21;;;;;;;27.03;15.60;;;7.70;99.90;;;;;;5051600;28;20937;-43
2022/03/16 03:29:48;;;;;;;24.40;16.80;;;8.10;99.90;;;;;;5051232;28;20811;-44
2022/03/16 03:32:16;;;;;;;25.93;16.53;;;7.60;99.90;;;;;;5051778;28;20453;-42
2022/03/16 03:34:46;;;;;;;27.60;18.57;;;8.20;99.90;;;;;;5051397;28;20476;-43
2022/03/16 03:37:13;;;;;;;27.13;15.97;;;7.60;99.90;;;;;;5051655;28;20437;-42
2022/03/16 03:39:40;;;;;;;26.70;17.40;;;7.10;99.90;;;;;;5050975;28;20543;-44
2022/03/16 03:42:07;;;;;;;24.40;16.30;;;7.20;99.90;;;;;;5051387;28;20829;-42
2022/03/16 03:44:37;;;;;;;22.90;15.50;;;7.50;99.90;;;;;;5051278;28;20441;-45
2022/03/16 03:47:04;;;;;;;29.93;19.03;;;7.60;99.90;;;;;;5051234;28;20436;-43
2022/03/16 03:49:32;;;;;;;25.63;16.57;;;7.50;99.90;;;;;;5050771;28;20441;-42
2022/03/16 03:51:59;;;;;;;24.73;16.27;;;7.20;99.90;;;;;;5051375;28;20452;-42
2022/03/16 03:54:26;;;;;;;27.90;16.90;;;7.30;99.90;;;;;;5051085;28;20476;-43
2022/03/16 03:56:53;;;;;;;28.80;16.90;;;7.20;99.90;;;;;;5051190;28;20443;-42
2022/03/16 03:59:20;;;;;;;28.80;17.70;;;7.50;99.90;;;;;;5052330;28;20846;-42
2022/03/16 04:01:47;;;;;;;28.87;17.47;;;7.90;99.90;;;;;;5054902;28;20551;-43
2022/03/16 04:04:14;;;;;;;30.57;18.20;;;6.90;99.90;;;;;;5054814;28;20437;-43
2022/03/16 04:06:42;;;;;;;28.53;17.07;;;7.50;99.90;;;;;;5054832;28;20439;-45
2022/03/16 04:09:09;;;;;;;29.90;17.43;;;7.30;99.90;;;;;;5054522;28;20474;-44
2022/03/16 04:11:35;;;;;;;28.83;18.30;;;7.20;99.90;;;;;;5036785;28;20455;-43
2022/03/16 04:14:02;;;;;;;31.37;18.93;;;7.20;99.90;;;;;;5054633;28;20846;-43
2022/03/16 04:16:29;;;;;;;30.17;17.30;;;7.30;99.90;;;;;;5054577;28;20437;-45
2022/03/16 04:18:56;;;;;;;32.97;18.93;;;7.30;99.90;;;;;;5054207;28;20437;-42
2022/03/16 04:21:22;;;;;;;26.40;16.93;;;7.30;99.90;;;;;;5054571;28;20439;-43
2022/03/16 04:23:50;;;;;;;30.07;17.70;;;7.30;99.90;;;;;;5054421;28;20460;-43
2022/03/16 04:26:18;;;;;;;33.97;19.50;;;7.20;99.90;;;;;;5054368;28;20955;-43
2022/03/16 04:28:45;;;;;;;28.23;19.00;;;7.50;99.90;;;;;;5054265;28;20752;-42
2022/03/16 04:31:12;;;;;;;34.23;18.47;;;7.10;99.90;;;;;;5054383;28;20445;-42
2022/03/16 04:33:39;;;;;;;24.80;18.60;;;7.10;99.90;;;;;;5054292;28;20498;-41
2022/03/16 04:36:06;;;;;;;35.13;18.17;;;6.80;99.90;;;;;;5053958;28;20454;-41
2022/03/16 04:38:33;;;;;;;30.17;18.10;;;6.90;99.90;;;;;;5053919;28;20437;-42
2022/03/16 04:41:01;;;;;;;30.83;17.50;;;6.90;99.90;;;;;;5054138;28;20433;-43
2022/03/16 04:43:28;;;;;;;26.77;17.97;;;7.00;99.90;;;;;;5054128;28;20443;-43
2022/03/16 04:45:55;;;;;;;28.93;19.87;;;6.80;99.90;;;;;;5053913;28;20445;-42
2022/03/16 04:48:21;;;;;;;29.67;18.17;;;6.90;99.90;;;;;;5053865;28;20432;-41
2022/03/16 04:50:48;;;;;;;30.27;18.30;;;6.80;99.90;;;;;;5054007;28;20443;-41
2022/03/16 04:53:15;;;;;;;29.57;19.70;;;6.90;99.90;;;;;;5053905;28;20465;-42
2022/03/16 04:55:42;;;;;;;30.30;18.50;;;6.70;99.90;;;;;;5053859;28;20479;-45
2022/03/16 04:58:12;;;;;;;27.67;19.20;;;6.90;99.90;;;;;;5053615;28;20533;-42
2022/03/16 05:00:39;;;;;;;28.73;17.57;;;6.70;99.90;;;;;;5053676;28;20480;-42
2022/03/16 05:03:06;;;;;;;28.53;18.17;;;6.70;99.90;;;;;;5054075;28;20868;-42
2022/03/16 05:05:33;;;;;;;36.27;19.47;;;7.00;99.90;;;;;;5054094;28;20936;-41
2022/03/16 05:07:59;;;;;;;30.53;19.30;;;6.60;99.90;;;;;;5053512;28;20432;-44
2022/03/16 05:10:26;;;;;;;31.93;19.47;;;6.70;99.90;;;;;;5052782;28;20957;-43
2022/03/16 05:12:53;;;;;;;33.23;21.70;;;6.40;99.90;;;;;;5054101;28;20979;-44
2022/03/16 05:15:22;;;;;;;33.67;19.90;;;6.70;99.90;;;;;;5053644;28;20493;-45
2022/03/16 05:17:49;;;;;;;32.03;19.57;;;6.50;99.90;;;;;;5053909;28;20804;-45
2022/03/16 05:20:16;;;;;;;29.50;20.53;;;7.00;99.90;;;;;;5053155;28;20437;-45
2022/03/16 05:22:44;;;;;;;35.40;20.23;;;6.20;99.90;;;;;;5053291;28;20460;-45
2022/03/16 05:25:12;;;;;;;29.93;19.30;;;6.40;99.90;;;;;;5053310;28;20467;-45
2022/03/16 05:27:39;;;;;;;31.70;20.40;;;6.90;99.90;;;;;;5053355;28;20425;-44
2022/03/16 05:30:09;;;;;;;31.70;20.30;;;6.40;99.90;;;;;;5052693;28;20436;-45
2022/03/16 05:32:39;;;;;;;31.07;21.20;;;6.80;99.90;;;;;;5053205;28;20455;-45
2022/03/16 05:35:07;;;;;;;33.03;20.17;;;6.70;99.90;;;;;;5053428;28;20479;-45
2022/03/16 05:37:33;;;;;;;39.13;21.20;;;6.70;99.90;;;;;;5053256;28;20516;-45
2022/03/16 05:40:00;;;;;;;35.50;21.70;;;6.70;99.90;;;;;;5052785;28;20439;-45
2022/03/16 05:42:27;;;;;;;35.83;23.60;;;6.70;99.90;;;;;;5052927;28;20462;-44
2022/03/16 05:44:54;;;;;;;35.27;20.03;;;6.40;99.90;;;;;;5053020;28;20834;-45
2022/03/16 05:47:22;;;;;;;33.70;20.43;;;6.70;99.90;;;;;;5053247;28;20499;-45
2022/03/16 05:49:51;;;;;;;35.43;19.87;;;6.60;99.90;;;;;;5052625;28;20819;-45
2022/03/16 05:52:21;;;;;;;31.33;20.70;;;6.70;99.90;;;;;;5053026;28;20469;-45
2022/03/16 05:54:48;;;;;;;30.63;20.43;;;6.60;99.90;;;;;;5052592;28;20487;-46
2022/03/16 05:57:15;;;;;;;34.93;21.10;;;6.40;99.90;;;;;;5052940;28;20440;-47
2022/03/16 05:59:42;;;;;;;38.60;20.07;;;6.50;99.90;;;;;;5052547;28;20430;-45
2022/03/16 06:02:09;;;;;;;33.53;21.40;;;6.50;99.90;;;;;;5052673;28;20451;-45
2022/03/16 06:04:36;;;;;;;36.67;20.63;;;6.60;99.90;;;;;;5052742;28;20782;-45
2022/03/16 06:07:05;;;;;;;35.43;21.80;;;6.50;99.90;;;;;;5052561;28;20410;-45
2022/03/16 06:09:31;;;;;;;33.37;22.57;;;6.80;99.90;;;;;;5052032;28;20446;-45
2022/03/16 06:11:58;;;;;;;28.77;19.87;;;6.00;99.90;;;;;;5052360;28;20469;-45
2022/03/16 06:14:25;;;;;;;35.70;21.97;;;6.80;99.90;;;;;;5052405;28;20454;-45
2022/03/16 06:16:52;;;;;;;36.83;20.80;;;6.80;99.90;;;;;;5052328;28;20533;-45
2022/03/16 06:19:19;;;;;;;31.80;19.50;;;6.80;99.90;;;;;;5052200;28;20467;-46
2022/03/16 06:21:46;;;;;;;29.97;20.27;;;6.20;99.90;;;;;;5033752;28;20469;-46
2022/03/16 06:24:14;;;;;;;33.43;22.13;;;6.60;99.90;;;;;;5051702;28;20479;-44
2022/03/16 06:26:42;;;;;;;34.73;22.10;;;6.90;99.90;;;;;;5052454;28;20939;-46
2022/03/16 06:29:09;;;;;;;32.13;21.67;;;7.10;99.90;;;;;;5052635;28;20436;-50
2022/03/16 06:31:36;;;;;;;32.73;22.10;;;7.50;99.90;;;;;;5052549;28;20453;-46
2022/03/16 06:34:03;;;;;;;31.97;21.00;;;6.80;99.90;;;;;;5052373;28;20828;-46
2022/03/16 06:36:30;;;;;;;33.00;21.33;;;7.10;99.90;;;;;;5051713;28;20491;-47
2022/03/16 06:38:57;;;;;;;33.43;21.67;;;7.10;99.90;;;;;;5051408;28;20429;-46
2022/03/16 06:41:25;;;;;;;34.07;22.93;;;6.80;99.90;;;;;;5051759;28;20440;-46
2022/03/16 06:43:52;;;;;;;32.57;21.10;;;7.30;99.90;;;;;;5052250;28;20431;-46
2022/03/16 06:46:18;;;;;;;34.57;23.43;;;7.20;99.90;;;;;;5052297;28;20600;-48
2022/03/16 06:48:45;;;;;;;35.90;22.60;;;7.20;99.90;;;;;;5051117;28;20471;-47
2022/03/16 06:51:11;;;;;;;37.27;22.20;;;7.20;99.90;;;;;;5052794;28;20452;-46
2022/03/16 06:53:38;;;;;;;30.73;20.40;;;6.90;99.90;;;;;;5053026;28;20463;-48
2022/03/16 06:56:05;;;;;;;35.73;23.13;;;7.00;99.90;;;;;;5052650;28;20575;-45
2022/03/16 06:58:33;;;;;;;39.87;21.20;;;7.10;99.90;;;;;;5051612;28;20481;-45
2022/03/16 07:01:00;;;;;;;37.33;20.63;;;7.40;99.90;;;;;;5052429;28;20458;-46
2022/03/16 07:03:26;;;;;;;31.43;21.07;;;7.40;99.90;;;;;;5052403;28;20448;-45
2022/03/16 07:05:53;;;;;;;30.10;20.87;;;7.30;99.90;;;;;;5053594;28;20858;-46
2022/03/16 07:08:20;;;;;;;33.27;22.93;;;7.70;99.90;;;;;;5052311;28;20433;-46
2022/03/16 07:10:46;;;;;;;34.20;21.73;;;7.30;99.90;;;;;;5052603;28;20574;-46
2022/03/16 07:13:13;;;;;;;30.47;20.67;;;7.10;99.90;;;;;;5051965;28;20553;-46
2022/03/16 07:15:42;;;;;;;37.43;23.40;;;7.30;99.90;;;;;;5051726;28;20956;-46
2022/03/16 07:18:10;;;;;;;36.90;21.10;;;7.00;99.90;;;;;;5051740;28;20971;-45
2022/03/16 07:20:37;;;;;;;36.83;21.67;;;7.60;99.90;;;;;;5051525;28;20473;-45
2022/03/16 07:23:07;;;;;;;35.40;22.33;;;7.50;99.90;;;;;;5051849;28;20448;-46
2022/03/16 07:25:33;;;;;;;29.80;19.73;;;7.00;99.90;;;;;;5051285;28;20447;-46
2022/03/16 07:28:00;;;;;;;26.80;18.10;;;6.80;99.90;;;;;;5052271;28;20436;-46
2022/03/16 07:30:27;;;;;;;28.37;18.47;;;7.10;99.90;;;;;;5051633;28;20885;-46
2022/03/16 07:32:55;;;;;;;27.80;17.40;;;6.80;99.90;;;;;;5051477;28;20452;-46
2022/03/16 07:35:26;;;;;;;20.80;16.17;;;6.80;99.90;;;;;;5055343;28;20824;-46
2022/03/16 07:37:53;;;;;;;29.57;15.23;;;6.50;99.90;;;;;;5055738;28;20441;-45
2022/03/16 07:40:20;;;;;;;24.50;16.03;;;7.30;99.90;;;;;;5055322;28;20439;-45
2022/03/16 07:42:48;;;;;;;26.93;18.27;;;6.30;99.90;;;;;;5055576;28;20421;-44
2022/03/16 07:45:15;;;;;;;24.40;17.10;;;6.90;99.90;;;;;;5037738;28;20875;-45
2022/03/16 07:47:42;;;;;;;30.07;18.90;;;7.10;99.90;;;;;;5056199;28;20483;-45
2022/03/16 07:50:11;;;;;;;32.83;20.60;;;7.20;99.90;;;;;;5055206;28;20438;-45
2022/03/16 07:52:38;;;;;;;29.83;19.97;;;7.20;99.90;;;;;;5055455;28;20991;-46
2022/03/16 07:55:07;;;;;;;29.93;20.03;;;7.10;99.90;;;;;;5054790;28;20451;-45
2022/03/16 07:57:34;;;;;;;31.30;20.33;;;7.20;99.90;;;;;;5055181;28;20410;-45
2022/03/16 08:00:01;;;;;;;32.37;21.47;;;6.80;99.90;;;;;;5055114;28;20807;-46
2022/03/16 08:02:27;;;;;;;29.90;19.20;;;7.20;99.90;;;;;;5055156;28;20451;-47
2022/03/16 08:04:57;;;;;;;33.40;20.17;;;7.40;99.90;;;;;;5054979;28;20946;-44
2022/03/16 08:07:25;;;;;;;30.27;19.20;;;8.00;99.90;;;;;;5055059;28;20796;-46
2022/03/16 08:09:52;;;;;;;31.90;19.70;;;7.50;99.90;;;;;;5054533;28;20809;-45
2022/03/16 08:12:19;;;;;;;24.20;17.20;;;8.20;99.90;;;;;;5054442;28;20482;-45
2022/03/16 08:14:45;;;;;;;35.10;19.87;;;7.60;99.90;;;;;;5055243;28;20434;-47
2022/03/16 08:17:12;;;;;;;26.53;18.90;;;7.50;99.90;;;;;;5054497;28;20496;-46
2022/03/16 08:19:39;;;;;;;26.10;17.20;;;7.90;99.90;;;;;;5055407;28;20835;-46
2022/03/16 08:22:05;;;;;;;27.73;18.50;;;7.50;99.90;;;;;;5054620;28;20459;-46
2022/03/16 08:24:33;;;;;;;27.40;18.57;;;7.80;99.90;;;;;;5054114;28;20568;-46
2022/03/16 08:27:00;;;;;;;26.40;20.13;;;7.70;99.90;;;;;;5055079;28;20440;-46
2022/03/16 08:29:27;;;;;;;30.00;18.60;;;7.60;99.90;;;;;;5054474;28;20437;-46
2022/03/16 08:31:54;;;;;;;23.20;16.67;;;8.10;99.90;;;;;;5054504;28;20465;-46
2022/03/16 08:34:21;;;;;;;20.73;16.50;;;8.00;99.90;;;;;;5054968;28;20465;-45
2022/03/16 08:36:47;;;;;;;28.90;17.60;;;8.00;99.90;;;;;;5054807;28;20478;-46
2022/03/16 08:39:14;;;;;;;21.97;16.20;;;8.30;99.90;;;;;;5054482;28;20912;-46
2022/03/16 08:41:42;;;;;;;20.83;15.67;;;8.20;99.90;;;;;;5054801;28;20829;-46
2022/03/16 08:44:09;;;;;;;24.10;16.20;;;8.10;99.90;;;;;;5054500;28;20449;-45
2022/03/16 08:46:35;;;;;;;20.40;14.23;;;8.30;99.90;;;;;;5053706;28;20429;-45
2022/03/16 08:49:02;;;;;;;21.87;15.60;;;8.00;99.90;;;;;;5053874;28;20433;-46
2022/03/16 08:51:28;;;;;;;20.60;13.97;;;8.10;99.90;;;;;;5053805;28;20437;-45
2022/03/16 08:53:55;;;;;;;21.53;15.20;;;8.30;99.90;;;;;;5054455;28;20536;-45
2022/03/16 08:56:21;;;;;;;18.60;14.07;;;8.30;99.90;;;;;;5036462;28;20561;-45
2022/03/16 08:58:50;;;;;;;19.03;14.00;;;8.10;99.90;;;;;;5053466;28;20442;-45
2022/03/16 09:01:16;;;;;;;18.37;14.20;;;8.20;99.90;;;;;;5053650;28;20522;-45
2022/03/16 09:03:43;;;;;;;18.77;14.63;;;8.20;99.90;;;;;;5054577;28;20863;-45
2022/03/16 09:06:09;;;;;;;20.27;14.50;;;8.40;99.90;;;;;;5054115;28;20427;-45
2022/03/16 09:08:36;;;;;;;18.37;13.80;;;8.60;99.90;;;;;;5053550;28;21036;-45
2022/03/16 09:11:03;;;;;;;16.53;12.77;;;8.20;99.90;;;;;;5054015;28;20408;-45
2022/03/16 09:13:30;;;;;;;18.90;14.13;;;8.80;99.90;;;;;;5053744;28;20466;-46
2022/03/16 09:16:01;;;;;;;19.67;13.90;;;8.10;99.90;;;;;;5053718;28;20502;-45
2022/03/16 09:18:27;;;;;;;17.80;13.60;;;8.30;99.90;;;;;;5053997;28;20766;-46
2022/03/16 09:20:54;;;;;;;19.00;13.60;;;8.10;99.90;;;;;;5053799;28;20448;-46
2022/03/16 09:23:21;;;;;;;16.90;13.10;;;8.60;99.90;;;;;;5053757;28;20457;-46
2022/03/16 09:25:48;;;;;;;19.23;14.67;;;8.60;99.90;;;;;;5054470;28;20861;-46
2022/03/16 09:28:14;;;;;;;21.90;14.57;;;8.60;99.90;;;;;;5054428;28;20441;-46
2022/03/16 09:30:41;;;;;;;19.30;13.80;;;8.50;99.90;;;;;;5054162;28;20431;-46
2022/03/16 09:33:09;;;;;;;20.93;13.90;;;8.70;99.90;;;;;;5054523;28;20490;-46
2022/03/16 09:35:36;;;;;;;17.30;13.77;;;8.80;99.90;;;;;;5053233;28;20439;-45
2022/03/16 09:38:02;;;;;;;16.70;13.20;;;9.20;99.90;;;;;;5053790;28;20912;-45
2022/03/16 09:40:31;;;;;;;17.47;13.97;;;8.80;99.90;;;;;;5052875;28;20496;-45
2022/03/16 09:42:58;;;;;;;22.13;15.97;;;9.10;99.90;;;;;;5053160;28;20804;-45
2022/03/16 09:45:30;;;;;;;18.87;13.80;;;9.40;99.90;;;;;;5053019;28;20445;-45
2022/03/16 09:47:58;;;;;;;17.20;13.20;;;9.10;99.90;;;;;;5053215;28;20435;-44
2022/03/16 09:50:26;;;;;;;15.33;12.23;;;9.00;99.90;;;;;;5052923;28;20520;-44
2022/03/16 09:52:53;;;;;;;20.50;12.43;;;9.40;99.90;;;;;;5052914;28;20507;-45
2022/03/16 09:55:21;;;;;;;17.50;12.90;;;9.50;99.90;;;;;;5053665;28;20442;-45
2022/03/16 09:57:47;;;;;;;32.30;22.97;;;9.10;99.90;;;;;;5052674;28;20572;-45
2022/03/16 10:00:15;;;;;;;14.80;11.10;;;9.70;99.90;;;;;;5052512;28;20529;-45
2022/03/16 10:02:41;;;;;;;16.30;12.40;;;10.00;99.90;;;;;;5052541;28;20535;-45
2022/03/16 10:05:09;;;;;;;15.33;11.47;;;9.90;99.90;;;;;;5053726;28;20437;-45
2022/03/16 10:07:38;;;;;;;14.67;11.33;;;9.90;99.90;;;;;;5053551;28;20435;-46
2022/03/16 10:15:36;;;;;;;16.77;12.03;;;9.70;99.90;;;;;;5052907;28;20805;-46
2022/03/16 10:18:03;;;;;;;17.67;12.50;;;10.40;99.90;;;;;;5052444;28;20510;-46
2022/03/16 10:20:32;;;;;;;16.03;12.17;;;9.80;99.90;;;;;;5051811;28;20431;-45
2022/03/16 10:23:04;;;;;;;16.57;11.77;;;10.70;99.90;;;;;;5052982;28;20498;-45
2022/03/16 10:25:32;;;;;;;18.43;12.67;;;10.40;99.90;;;;;;5052756;28;20427;-45
2022/03/16 10:28:10;;;;;;;17.40;12.00;;;10.40;99.90;;;;;;5053741;28;20463;-45
2022/03/16 10:30:37;;;;;;;14.80;10.70;;;10.40;99.90;;;;;;5052697;28;20462;-46
2022/03/16 10:33:04;;;;;;;19.70;10.87;;;10.40;99.90;;;;;;5052201;28;20454;-45
2022/03/16 10:35:30;;;;;;;11.93;9.93;;;10.10;99.90;;;;;;5052381;28;20823;-45
2022/03/16 10:38:10;;;;;;;22.63;11.60;;;10.40;99.90;;;;;;5052252;28;20883;-45
2022/03/16 10:40:37;;;;;;;15.07;11.67;;;10.30;99.90;;;;;;5052821;28;20891;-46
2022/03/16 10:49:03;;;;;;;14.23;11.27;;;9.80;99.90;;;;;;5050830;28;20507;-46
2022/03/16 10:51:29;;;;;;;14.07;10.67;;;10.20;99.90;;;;;;5051965;28;20435;-46
2022/03/16 10:54:00;;;;;;;15.00;11.20;;;10.70;99.90;;;;;;5051849;28;20438;-46
2022/03/16 10:56:28;;;;;;;13.43;10.57;;;10.90;99.90;;;;;;5051823;28;20485;-46
2022/03/16 10:58:55;;;;;;;15.47;10.90;;;10.50;99.90;;;;;;5051188;28;20457;-46
2022/03/16 11:01:23;;;;;;;14.80;11.47;;;10.50;99.90;;;;;;5051492;28;20435;-46
2022/03/16 11:03:51;;;;;;;21.50;12.20;;;10.70;99.90;;;;;;5051474;28;20475;-48
2022/03/16 11:06:21;;;;;;;16.30;11.30;;;10.50;99.90;;;;;;5051435;28;20529;-45
2022/03/16 11:08:49;;;;;;;15.10;11.57;;;10.00;99.90;;;;;;5050798;28;20481;-46
2022/03/16 11:14:03;;;;;;;12.97;10.70;;;10.60;99.90;;;;;;5052503;28;20495;-46
2022/03/16 11:16:31;;;;;;;13.87;10.30;;;10.40;99.90;;;;;;5051693;28;20470;-46
2022/03/16 11:18:59;;;;;;;13.80;10.70;;;10.40;99.90;;;;;;5051460;28;20863;-46
2022/03/16 11:21:30;;;;;;;13.27;10.10;;;10.40;99.90;;;;;;5051516;28;20435;-46
2022/03/16 11:24:17;;;;;;;19.37;12.57;;;10.60;99.90;;;;;;5051838;28;20412;-45
2022/03/16 11:27:00;;;;;;;13.73;11.10;;;10.50;99.90;;;;;;5051347;28;20525;-46
2022/03/16 11:29:38;;;;;;;14.23;10.93;;;10.60;99.90;;;;;;5051584;28;20981;-46
2022/03/16 11:32:15;;;;;;;16.30;12.23;;;10.70;99.90;;;;;;5051561;28;20784;-45
2022/03/16 11:34:48;;;;;;;13.30;11.07;;;10.70;99.90;;;;;;5052017;28;20426;-45
2022/03/16 11:37:15;;;;;;;15.70;11.43;;;10.00;99.90;;;;;;5051604;28;20481;-46
2022/03/16 11:39:43;;;;;;;20.47;12.47;;;10.80;99.90;;;;;;5050825;28;20930;-45
2022/03/16 11:42:13;;;;;;;16.67;12.90;;;10.60;99.90;;;;;;5051484;28;20454;-46
2022/03/16 11:44:40;;;;;;;18.53;13.70;;;10.00;99.90;;;;;;5051492;28;20534;-45
2022/03/16 11:47:36;;;;;;;19.13;12.03;;;10.10;99.90;;;;;;5033355;28;20461;-46
2022/03/16 11:50:11;;;;;;;19.47;13.20;;;9.90;99.90;;;;;;5050919;28;20426;-46
2022/03/16 11:52:58;;;;;;;20.10;13.23;;;9.80;99.90;;;;;;5051162;28;20547;-45
2022/03/16 11:55:48;;;;;;;22.53;14.23;;;10.10;99.90;;;;;;5051148;28;20422;-47
2022/03/16 11:58:28;;;;;;;17.93;13.97;;;10.00;99.90;;;;;;5051389;28;20534;-46
2022/03/16 12:01:23;;;;;;;23.00;14.10;;;9.90;99.90;;;;;;5051027;28;20434;-46
2022/03/16 12:03:58;;;;;;;23.53;14.97;;;10.00;99.90;;;;;;5051039;28;20931;-45
2022/03/16 12:06:29;;;;;;;22.47;14.63;;;9.80;99.90;;;;;;5051629;28;20442;-46
2022/03/16 12:08:59;;;;;;;25.77;15.60;;;9.50;99.90;;;;;;5051250;28;20512;-46
2022/03/16 12:14:11;;;;;;;26.97;15.20;;;9.90;99.90;;;;;;5051113;28;20431;-46
2022/03/16 12:16:42;;;;;;;27.20;18.20;;;9.80;99.90;;;;;;5049349;28;20839;-47
2022/03/16 12:19:28;;;;;;;32.30;17.67;;;10.00;99.90;;;;;;5051706;28;20496;-46
2022/03/16 12:21:56;;;;;;;28.10;18.30;;;9.90;99.90;;;;;;5033057;28;20443;-46
2022/03/16 12:30:06;;;;;;;33.10;23.42;;;10.20;99.90;;;;;;5053210;28;20459;-47
2022/03/16 12:32:35;;;;;;;37.87;20.30;;;10.30;99.90;;;;;;5054466;28;20262;-47
2022/03/16 12:35:03;;;;;;;34.03;20.70;;;9.90;99.90;;;;;;5054274;28;20478;-48
2022/03/16 12:37:30;;;;;;;34.77;21.80;;;10.00;99.90;;;;;;5054729;28;20482;-46
2022/03/16 12:39:57;;;;;;;33.73;20.57;;;10.10;99.90;;;;;;5054346;28;20970;-45
2022/03/16 12:42:32;;;;;;;32.40;20.77;;;10.10;99.90;;;;;;5054562;28;20459;-44
2022/03/16 12:45:09;;;;;;;31.23;20.43;;;10.10;99.90;;;;;;5054378;28;20806;-45
2022/03/16 12:47:41;;;;;;;38.80;22.33;;;10.00;99.90;;;;;;5036732;28;20545;-46
2022/03/16 12:50:12;;;;;;;39.00;23.03;;;10.20;99.90;;;;;;5054585;28;20534;-47
2022/03/16 12:52:40;;;;;;;42.97;23.97;;;10.10;99.90;;;;;;5054736;28;20490;-48
2022/03/16 12:55:11;;;;;;;40.77;24.37;;;10.20;99.90;;;;;;5054929;28;20423;-46
2022/03/16 12:57:37;;;;;;;35.07;22.93;;;10.20;99.90;;;;;;5054189;28;20496;-46
2022/03/16 13:00:13;;;;;;;40.90;23.60;;;9.90;99.90;;;;;;5054342;28;20766;-46
2022/03/16 13:02:42;;;;;;;40.07;21.90;;;10.00;99.90;;;;;;5054580;28;20456;-47